KXNO

Details ICAO KXNO
Name NORTH AF AUX
Region United States
Timezone America/New_York (UTC-5.0)
Plans Departing 1
Arriving 1
Stats Elevation 321 ft / 98 m (AMSL)
Location 33.609930° -81.078621°
Runways 2
Magnetic Variation 7.339° W
Sunrise 2017-12-14 12:22:17 UTC / 2017-12-14 07:22:17 Local
Sunset 2017-12-14 22:18:43 UTC / 2017-12-14 17:18:43 Local
Advertisement - Login to hide

Runways

ID Width Length Bearing (true) Bearing (mag) Surface Threshold Offset Overrun Length
05 90 ft / 27 m 3,501 ft / 1,067 m 43.72° 51.06° Asphalt 0 ft / 0 m 0 ft / 0 m
06 150 ft / 46 m 9,996 ft / 3,047 m 53.49° 60.83° Asphalt 1,000 ft / 305 m 1,000 ft / 305 m
23 90 ft / 27 m 3,501 ft / 1,067 m 223.73° 231.07° Asphalt 0 ft / 0 m 300 ft / 91 m
24 150 ft / 46 m 9,996 ft / 3,047 m 233.50° 240.84° Asphalt 1,000 ft / 305 m 1,000 ft / 305 m

Map

Weather


0- 5 10 15 20 25 30 35+ Temperature / ° C

Clouds and Precipitation
Forecast for 2017-12-14 18:00 UTC. Updated 24 minutes ago

Ground ~20,000 ft ~40,000 ft Winds

METAR

KXNO 141656Z AUTO 20006KT 10SM CLR 14/M04 A2991 RMK AO2 SLP132 T01361037 $

TAF

Not found

Frequencies

Unicom 118.15 MHz CTAF
Ground 118.15 MHz GND
Approach 124.15 MHz COLUMBIA APP/DEP
Clearance 120.47 MHz COLUMBIA CLNC DEL
Tower 118.15 MHz TWR
Warning: Do not use this data for real-world aviation or navigation. No guarantee of current accuracy is given.